createdAt,value
2019-02-11T00:00:56.631Z,1.38
2019-02-11T00:03:25.498Z,1.41
2019-02-11T00:05:54.229Z,1.44
2019-02-11T00:08:22.946Z,1.37
2019-02-11T00:10:51.762Z,1.30
2019-02-11T00:13:20.492Z,1.24
2019-02-11T00:15:49.224Z,1.13
2019-02-11T00:18:17.974Z,1.00
2019-02-11T00:20:46.709Z,1.26
2019-02-11T00:23:15.422Z,1.43
2019-02-11T00:25:44.195Z,1.44
2019-02-11T00:28:12.925Z,1.42
2019-02-11T00:30:41.646Z,1.26
2019-02-11T00:33:10.544Z,1.22
2019-02-11T00:35:39.308Z,1.48
2019-02-11T00:38:08.034Z,1.24
2019-02-11T00:40:36.902Z,0.87
2019-02-11T00:43:05.628Z,0.62
2019-02-11T00:45:34.344Z,0.55
2019-02-11T00:48:04.335Z,0.48
2019-02-11T00:50:33.060Z,0.36
2019-02-11T00:53:01.786Z,0.30
2019-02-11T00:55:30.565Z,0.41
2019-02-11T00:57:59.293Z,0.58
2019-02-11T01:00:28.017Z,0.52
2019-02-11T01:02:57.025Z,0.51
2019-02-11T01:05:25.745Z,0.54
2019-02-11T01:07:54.475Z,1.09
2019-02-11T01:10:23.238Z,0.77
2019-02-11T01:12:51.968Z,0.74
2019-02-11T01:15:20.696Z,0.79
2019-02-11T01:17:49.888Z,0.76
2019-02-11T01:20:18.616Z,0.61
2019-02-11T01:22:47.340Z,0.37
2019-02-11T01:25:16.556Z,0.37
2019-02-11T01:27:45.292Z,0.31
2019-02-11T01:30:14.019Z,0.24
2019-02-11T01:32:43.227Z,0.10
2019-02-11T01:35:11.954Z,0.07
2019-02-11T01:37:40.729Z,0.11
2019-02-11T01:40:11.046Z,0.16
2019-02-11T01:42:39.780Z,0.20
2019-02-11T01:45:11.217Z,0.26
2019-02-11T01:47:40.349Z,0.35
2019-02-11T01:50:11.486Z,0.46
2019-02-11T01:52:40.214Z,0.47
2019-02-11T01:55:09.078Z,0.79
2019-02-11T01:57:37.846Z,0.68
2019-02-11T02:00:14.676Z,0.51
2019-02-11T02:02:43.402Z,0.36
2019-02-11T02:05:12.119Z,0.28
2019-02-11T02:07:40.994Z,0.40
2019-02-11T02:10:12.688Z,0.32
2019-02-11T02:12:41.409Z,0.28
2019-02-11T02:15:13.105Z,0.25
2019-02-11T02:17:41.828Z,0.18
2019-02-11T02:20:13.329Z,0.28
2019-02-11T02:22:42.324Z,0.36
2019-02-11T02:25:12.149Z,0.45
2019-02-11T02:27:41.572Z,0.24
2019-02-11T02:30:14.807Z,-0.02
2019-02-11T02:32:43.515Z,-0.22
2019-02-11T02:35:12.241Z,-0.28
2019-02-11T02:37:41.123Z,-0.34
2019-02-11T02:40:10.610Z,-0.27
2019-02-11T02:42:39.340Z,-0.18
2019-02-11T02:45:09.699Z,-0.06
2019-02-11T02:47:38.438Z,-0.04
2019-02-11T02:50:09.176Z,-0.05
2019-02-11T02:52:38.053Z,0.13
2019-02-11T02:55:08.084Z,0.15
2019-02-11T02:57:36.808Z,0.13
2019-02-11T03:00:11.410Z,0.05
2019-02-11T03:02:40.145Z,0.10
2019-02-11T03:05:09.672Z,0.13
2019-02-11T03:07:38.977Z,0.17
2019-02-11T03:10:11.709Z,0.19
2019-02-11T03:12:40.432Z,0.24
2019-02-11T03:15:11.024Z,0.26
2019-02-11T03:17:39.749Z,0.23
2019-02-11T03:20:09.474Z,0.14
2019-02-11T03:22:38.345Z,0.10
2019-02-11T03:25:08.485Z,0.40
2019-02-11T03:27:37.194Z,0.69
2019-02-11T03:30:09.152Z,0.58
2019-02-11T03:32:37.883Z,0.71
2019-02-11T03:35:06.880Z,0.51
2019-02-11T03:37:35.844Z,0.40
2019-02-11T03:40:07.272Z,0.33
2019-02-11T03:42:35.993Z,0.35
2019-02-11T03:45:10.612Z,0.28
2019-02-11T03:47:39.329Z,0.47
2019-02-11T03:50:10.329Z,0.54
2019-02-11T03:52:39.293Z,0.61
2019-02-11T03:55:08.612Z,0.36
2019-02-11T03:57:37.343Z,0.25
2019-02-11T04:00:09.271Z,0.40
2019-02-11T04:02:37.996Z,0.27
2019-02-11T04:05:07.839Z,0.07
2019-02-11T04:07:37.014Z,-0.16
2019-02-11T04:10:08.761Z,-0.31
2019-02-11T04:12:37.480Z,-0.27
2019-02-11T04:15:08.398Z,-0.32
2019-02-11T04:17:37.124Z,-0.46
2019-02-11T04:20:07.550Z,-0.53
2019-02-11T04:22:36.325Z,-0.35
2019-02-11T04:25:06.460Z,-0.24
2019-02-11T04:27:35.350Z,-0.26
2019-02-11T04:30:04.592Z,-0.37
2019-02-11T04:32:33.330Z,-0.36
2019-02-11T04:35:02.068Z,-0.41
2019-02-11T04:37:31.184Z,-0.36
2019-02-11T04:39:59.911Z,-0.32
2019-02-11T04:42:28.635Z,-0.42
2019-02-11T04:44:57.862Z,-0.46
2019-02-11T04:47:26.585Z,-0.39
2019-02-11T04:49:55.305Z,-0.18
2019-02-11T04:52:24.082Z,-0.26
2019-02-11T04:54:52.815Z,-0.32
2019-02-11T04:57:21.555Z,-0.36
2019-02-11T04:59:50.449Z,-0.40
2019-02-11T05:02:19.170Z,-0.29
2019-02-11T05:04:47.897Z,-0.44
2019-02-11T05:07:16.693Z,-0.45
2019-02-11T05:09:45.416Z,-0.38
2019-02-11T05:12:14.186Z,-0.34
2019-02-11T05:14:44.265Z,-0.52
2019-02-11T05:17:13.183Z,-0.53
2019-02-11T05:19:41.906Z,-0.38
2019-02-11T05:22:10.793Z,-0.21
2019-02-11T05:24:39.525Z,-0.25
2019-02-11T05:27:08.267Z,-0.32
2019-02-11T05:29:37.016Z,-0.29
2019-02-11T05:32:05.752Z,-0.33
2019-02-11T05:34:34.485Z,-0.25
2019-02-11T05:37:03.265Z,-0.32
2019-02-11T05:39:31.999Z,-0.32
2019-02-11T05:42:00.724Z,0.01
2019-02-11T05:44:29.489Z,0.21
2019-02-11T05:46:58.269Z,0.01
2019-02-11T05:49:26.991Z,0.05
2019-02-11T05:52:01.614Z,0.08
2019-02-11T05:54:30.339Z,-0.10
2019-02-11T05:56:59.067Z,-0.29
2019-02-11T05:59:28.060Z,0.02
2019-02-11T06:01:56.772Z,0.21
2019-02-11T06:04:25.487Z,0.04
2019-02-11T06:06:54.291Z,-0.09
2019-02-11T06:09:23.468Z,0.15
2019-02-11T06:11:52.186Z,0.35
2019-02-11T06:14:23.207Z,0.12
2019-02-11T06:16:51.618Z,-0.03
2019-02-11T06:19:20.378Z,0.04
2019-02-11T06:21:49.247Z,0.08
2019-02-11T06:24:19.445Z,0.28
2019-02-11T06:26:48.180Z,0.42
2019-02-11T06:29:19.009Z,0.61
2019-02-11T06:31:47.529Z,1.13
2019-02-11T06:34:16.234Z,1.32
2019-02-11T06:36:45.009Z,1.90
2019-02-11T06:39:13.740Z,2.15
2019-02-11T06:41:42.459Z,2.36
2019-02-11T06:44:11.357Z,2.50
2019-02-11T06:46:40.080Z,2.66
2019-02-11T06:49:08.850Z,2.88
2019-02-11T06:51:37.754Z,3.06
2019-02-11T06:54:06.485Z,3.24
2019-02-11T06:56:35.210Z,3.32
2019-02-11T06:59:04.414Z,3.06
2019-02-11T07:01:33.139Z,3.20
2019-02-11T07:04:01.852Z,3.17
2019-02-11T07:06:30.664Z,3.25
2019-02-11T07:08:59.390Z,2.95
2019-02-11T07:11:28.120Z,2.89
2019-02-11T07:13:56.975Z,2.67
2019-02-11T07:16:25.701Z,2.80
2019-02-11T07:18:54.422Z,2.75
2019-02-11T07:21:23.193Z,3.09
2019-02-11T07:23:51.924Z,3.53
2019-02-11T07:26:20.637Z,3.77
2019-02-11T07:28:49.965Z,4.10
2019-02-11T07:31:18.698Z,4.45
2019-02-11T07:33:47.417Z,4.77
2019-02-11T07:36:17.989Z,5.04
2019-02-11T07:38:46.843Z,5.35
2019-02-11T07:41:15.561Z,5.75
2019-02-11T07:43:48.670Z,5.78
2019-02-11T07:46:18.950Z,5.70
2019-02-11T07:48:47.675Z,6.11
2019-02-11T07:51:16.688Z,6.07
2019-02-11T07:53:45.411Z,6.15
2019-02-11T07:56:14.129Z,6.44
2019-02-11T07:58:42.920Z,7.23
2019-02-11T08:01:11.653Z,8.05
2019-02-11T08:03:40.373Z,7.97
2019-02-11T08:06:09.261Z,7.63
2019-02-11T08:08:37.952Z,7.62
2019-02-11T08:11:06.682Z,7.45
2019-02-11T08:13:35.645Z,7.33
2019-02-11T08:16:04.469Z,7.18
2019-02-11T08:18:33.191Z,6.70
2019-02-11T08:21:01.958Z,6.18
2019-02-11T08:23:30.680Z,5.91
2019-02-11T08:25:59.406Z,6.06
2019-02-11T08:28:28.656Z,6.01
2019-02-11T08:30:57.396Z,6.16
2019-02-11T08:33:26.224Z,6.42
2019-02-11T08:35:55.007Z,6.76
2019-02-11T08:38:23.730Z,6.79
2019-02-11T08:40:52.456Z,7.02
2019-02-11T08:43:21.332Z,7.10
2019-02-11T08:45:50.050Z,7.07
2019-02-11T08:48:18.767Z,7.42
2019-02-11T08:50:47.583Z,7.20
2019-02-11T08:53:16.320Z,7.34
2019-02-11T08:55:45.046Z,7.18
2019-02-11T08:58:13.903Z,7.09
2019-02-11T09:00:42.703Z,7.17
2019-02-11T09:03:12.422Z,7.30
2019-02-11T09:05:41.279Z,7.22
2019-02-11T09:08:10.412Z,7.17
2019-02-11T09:10:39.141Z,7.16
2019-02-11T09:13:08.003Z,7.11
2019-02-11T09:15:36.726Z,7.14
2019-02-11T09:18:05.570Z,6.98
2019-02-11T09:20:34.361Z,6.92
2019-02-11T09:23:03.071Z,6.81
2019-02-11T09:25:31.798Z,6.75
2019-02-11T09:28:00.558Z,6.87
2019-02-11T09:30:29.278Z,6.57
2019-02-11T09:32:57.995Z,6.81
2019-02-11T09:35:26.763Z,6.77
2019-02-11T09:37:55.484Z,7.17
2019-02-11T09:40:24.218Z,7.20
2019-02-11T09:42:53.437Z,6.84
2019-02-11T09:45:24.841Z,6.83
2019-02-11T09:47:53.570Z,6.81
2019-02-11T09:50:25.871Z,6.72
2019-02-11T09:52:54.601Z,6.80
2019-02-11T09:55:29.192Z,6.96
2019-02-11T09:57:58.053Z,7.12
2019-02-11T10:00:27.492Z,7.37
2019-02-11T10:02:56.213Z,6.95
2019-02-11T10:05:25.095Z,6.78
2019-02-11T10:07:53.820Z,7.45
2019-02-11T10:10:22.553Z,7.84
2019-02-11T10:12:51.442Z,7.91
2019-02-11T10:15:20.177Z,7.92
2019-02-11T10:17:48.986Z,7.92
2019-02-11T10:20:17.812Z,8.01
2019-02-11T10:22:46.537Z,7.84
2019-02-11T10:25:24.079Z,7.54
2019-02-11T10:27:54.490Z,7.65
2019-02-11T10:30:23.214Z,7.69
2019-02-11T10:32:52.097Z,7.58
2019-02-11T10:35:21.020Z,7.29
2019-02-11T10:37:49.844Z,7.43
2019-02-11T10:40:18.719Z,7.36
2019-02-11T10:42:47.454Z,7.28
2019-02-11T10:45:16.262Z,7.23
2019-02-11T10:47:49.140Z,7.10
2019-02-11T10:50:18.870Z,7.15
2019-02-11T10:52:47.805Z,6.98
2019-02-11T10:55:18.657Z,7.02
2019-02-11T10:57:47.440Z,7.28
2019-02-11T11:00:19.310Z,7.56
2019-02-11T11:02:48.416Z,7.60
2019-02-11T11:05:17.227Z,8.07
2019-02-11T11:07:46.162Z,8.70
2019-02-11T11:10:26.725Z,9.02
2019-02-11T11:12:55.575Z,9.42
2019-02-11T11:15:24.501Z,9.86
2019-02-11T11:17:53.647Z,10.34
2019-02-11T11:20:22.368Z,10.81
2019-02-11T11:22:51.131Z,10.37
2019-02-11T11:25:20.127Z,10.81
2019-02-11T11:27:48.863Z,11.62
2019-02-11T11:30:21.294Z,11.87
2019-02-11T11:32:50.102Z,12.15
2019-02-11T11:35:19.126Z,12.43
2019-02-11T11:37:47.849Z,12.58
2019-02-11T11:40:21.639Z,12.75
2019-02-11T11:42:50.382Z,12.99
2019-02-11T11:45:20.513Z,12.90
2019-02-11T11:47:49.404Z,13.42
2019-02-11T11:50:18.631Z,13.22
2019-02-11T11:52:47.471Z,12.73
2019-02-11T11:55:21.617Z,12.94
2019-02-11T11:57:53.362Z,12.60
2019-02-11T12:00:24.837Z,12.75
2019-02-11T12:03:01.526Z,12.86
2019-02-11T12:05:24.294Z,13.32
2019-02-11T12:07:53.060Z,13.49
2019-02-11T12:10:21.929Z,13.14
2019-02-11T12:12:50.655Z,12.96
2019-02-11T12:15:22.352Z,12.92
2019-02-11T12:17:51.537Z,12.83
2019-02-11T12:20:21.812Z,12.28
2019-02-11T12:22:50.555Z,12.31
2019-02-11T12:25:19.780Z,12.05
2019-02-11T12:27:48.504Z,11.77
2019-02-11T12:30:25.500Z,11.54
2019-02-11T12:32:55.744Z,11.64
2019-02-11T12:35:24.839Z,10.84
2019-02-11T12:37:53.931Z,10.85
2019-02-11T12:40:22.668Z,11.04
2019-02-11T12:42:53.101Z,11.05
2019-02-11T12:45:24.834Z,11.35
2019-02-11T12:47:53.590Z,11.24
2019-02-11T12:50:22.333Z,11.35
2019-02-11T12:52:51.961Z,11.40
2019-02-11T12:55:20.705Z,11.19
2019-02-11T12:57:49.431Z,11.28
2019-02-11T13:00:24.803Z,11.21
2019-02-11T13:02:53.619Z,11.21
2019-02-11T13:05:32.292Z,11.24
2019-02-11T13:07:53.066Z,11.21
2019-02-11T13:10:21.782Z,11.13
2019-02-11T13:12:50.526Z,10.93
2019-02-11T13:15:53.096Z,10.71
2019-02-11T13:17:50.939Z,10.53
2019-02-11T13:20:20.061Z,10.70
2019-02-11T13:22:49.005Z,10.68
2019-02-11T13:25:18.850Z,10.81
2019-02-11T13:27:47.866Z,10.79
2019-02-11T13:30:18.522Z,10.57
2019-02-11T13:32:47.371Z,10.23
2019-02-11T13:35:16.248Z,9.98
2019-02-11T13:37:45.570Z,10.00
2019-02-11T13:40:14.810Z,9.84
2019-02-11T13:42:43.808Z,9.81
2019-02-11T13:45:14.721Z,9.71
2019-02-11T13:47:53.132Z,9.20
2019-02-11T13:50:16.244Z,9.04
2019-02-11T13:52:45.111Z,9.12
2019-02-11T13:55:13.949Z,9.01
2019-02-11T13:57:42.673Z,8.98
2019-02-11T14:00:21.427Z,8.84
2019-02-11T14:02:52.547Z,8.69
2019-02-11T14:05:21.836Z,8.60
2019-02-11T14:07:50.623Z,8.62
2019-02-11T14:10:19.428Z,8.38
2019-02-11T14:12:48.750Z,8.15
2019-02-11T14:15:20.289Z,8.14
2019-02-11T14:17:48.079Z,8.05
2019-02-11T14:20:25.757Z,7.89
2019-02-11T14:22:54.469Z,8.08
2019-02-11T14:25:40.521Z,8.11
2019-02-11T14:27:53.825Z,8.17
2019-02-11T14:30:23.068Z,8.37
2019-02-11T14:32:51.834Z,8.29
2019-02-11T14:35:21.305Z,8.22
2019-02-11T14:37:50.178Z,8.05
2019-02-11T14:40:19.108Z,7.96
2019-02-11T14:42:47.881Z,7.93
2019-02-11T14:45:20.429Z,7.89
2019-02-11T14:47:49.155Z,7.93
2019-02-11T14:50:18.058Z,7.89
2019-02-11T14:52:46.739Z,7.85
2019-02-11T14:55:15.460Z,7.85
2019-02-11T14:57:44.230Z,7.94
2019-02-11T15:00:21.564Z,8.12
2019-02-11T15:02:50.625Z,8.13
2019-02-11T15:05:19.752Z,7.98
2019-02-11T15:07:48.602Z,7.93
2019-02-11T15:10:19.588Z,7.92
2019-02-11T15:12:48.244Z,7.83
2019-02-11T15:15:16.978Z,7.85
2019-02-11T15:17:46.912Z,7.71
2019-02-11T15:20:16.633Z,7.62
2019-02-11T15:22:47.025Z,7.56
2019-02-11T15:25:18.171Z,7.58
2019-02-11T15:27:46.896Z,7.64
2019-02-11T15:30:17.521Z,7.36
2019-02-11T15:32:46.820Z,7.16
2019-02-11T15:35:15.571Z,7.02
2019-02-11T15:37:44.376Z,7.06
2019-02-11T15:40:21.747Z,7.01
2019-02-11T15:42:50.474Z,6.91
2019-02-11T15:45:19.196Z,6.83
2019-02-11T15:47:47.994Z,6.78
2019-02-11T15:50:18.020Z,6.70
2019-02-11T15:52:46.840Z,6.62
2019-02-11T15:55:21.109Z,6.49
2019-02-11T15:57:49.838Z,6.36
2019-02-11T16:00:23.293Z,6.29
2019-02-11T16:02:52.337Z,6.19
2019-02-11T16:05:21.199Z,6.17
2019-02-11T16:07:49.932Z,6.21
2019-02-11T16:10:22.420Z,6.14
2019-02-11T16:12:51.236Z,6.10
2019-02-11T16:15:19.950Z,6.28
2019-02-11T16:17:49.180Z,6.10
2019-02-11T16:20:17.901Z,5.99
2019-02-11T16:22:46.630Z,5.90
2019-02-11T16:25:16.094Z,5.75
2019-02-11T16:27:44.823Z,5.61
2019-02-11T16:30:16.493Z,5.62
2019-02-11T16:32:45.701Z,5.74
2019-02-11T16:35:16.326Z,5.70
2019-02-11T16:37:45.058Z,5.78
2019-02-11T16:40:28.314Z,5.90
2019-02-11T16:42:57.044Z,6.01
2019-02-11T16:45:25.765Z,6.00
2019-02-11T16:47:54.808Z,6.01
2019-02-11T16:50:23.539Z,6.00
2019-02-11T16:52:52.268Z,5.86
2019-02-11T16:55:21.066Z,5.80
2019-02-11T16:57:49.793Z,5.74
2019-02-11T17:00:21.755Z,5.67
2019-02-11T17:02:50.540Z,5.64
2019-02-11T17:05:19.290Z,5.76
2019-02-11T17:07:48.142Z,5.80
2019-02-11T17:10:17.167Z,5.76
2019-02-11T17:12:45.916Z,5.65
2019-02-11T17:15:19.036Z,5.54
2019-02-11T17:17:48.147Z,5.59
2019-02-11T17:20:17.487Z,5.56
2019-02-11T17:22:46.223Z,5.59
2019-02-11T17:25:15.833Z,5.75
2019-02-11T17:27:44.568Z,5.81
2019-02-11T17:30:15.906Z,5.97
2019-02-11T17:32:44.703Z,5.82
2019-02-11T17:35:13.543Z,5.71
2019-02-11T17:37:42.292Z,5.81
2019-02-11T17:40:13.589Z,5.77
2019-02-11T17:42:42.320Z,5.82
2019-02-11T17:45:16.574Z,5.81
2019-02-11T17:47:45.571Z,5.86
2019-02-11T17:50:14.510Z,5.87
2019-02-11T17:52:43.281Z,5.90
2019-02-11T17:55:14.235Z,5.91
2019-02-11T17:57:42.966Z,5.89
2019-02-11T18:00:25.357Z,5.83
2019-02-11T18:02:54.189Z,5.90
2019-02-11T18:05:22.918Z,5.92
2019-02-11T18:07:51.813Z,5.96
2019-02-11T18:10:20.569Z,5.83
2019-02-11T18:12:49.295Z,5.68
2019-02-11T18:15:18.114Z,5.55
2019-02-11T18:17:46.927Z,5.48
2019-02-11T18:20:15.660Z,5.55
2019-02-11T18:22:44.539Z,5.63
2019-02-11T18:25:13.473Z,5.54
2019-02-11T18:27:42.209Z,5.56
2019-02-11T18:30:15.941Z,5.63
2019-02-11T18:32:44.770Z,5.61
2019-02-11T18:35:18.290Z,5.69
2019-02-11T18:37:47.096Z,5.86
2019-02-11T18:40:16.331Z,5.92
2019-02-11T18:42:45.090Z,6.01
2019-02-11T18:45:18.627Z,5.88
2019-02-11T18:47:47.358Z,5.96
2019-02-11T18:50:16.607Z,5.95
2019-02-11T18:52:45.479Z,5.98
2019-02-11T18:55:19.060Z,6.03
2019-02-11T18:57:47.791Z,6.07
2019-02-11T19:00:19.921Z,6.08
2019-02-11T19:02:49.335Z,6.08
2019-02-11T19:05:18.489Z,5.96
2019-02-11T19:07:47.400Z,5.99
2019-02-11T19:10:17.639Z,6.07
2019-02-11T19:12:46.518Z,6.19
2019-02-11T19:15:19.080Z,6.22
2019-02-11T19:17:47.968Z,6.53
2019-02-11T19:20:17.708Z,6.47
2019-02-11T19:22:46.995Z,6.41
2019-02-11T19:25:16.008Z,6.42
2019-02-11T19:27:44.760Z,6.27
2019-02-11T19:30:20.937Z,6.14
2019-02-11T19:32:49.567Z,6.08
2019-02-11T19:35:18.404Z,6.18
2019-02-11T19:37:47.185Z,6.18
2019-02-11T19:40:17.815Z,6.18
2019-02-11T19:42:46.549Z,5.99
2019-02-11T19:45:18.219Z,5.82
2019-02-11T19:47:47.004Z,5.78
2019-02-11T19:50:17.227Z,5.81
2019-02-11T19:52:46.006Z,5.79
2019-02-11T19:55:20.382Z,5.83
2019-02-11T19:57:49.120Z,5.82
2019-02-11T20:00:22.112Z,5.98
2019-02-11T20:02:51.458Z,6.11
2019-02-11T20:05:20.196Z,6.21
2019-02-11T20:07:49.088Z,6.04
2019-02-11T20:10:20.296Z,6.06
2019-02-11T20:12:49.021Z,6.18
2019-02-11T20:15:20.146Z,6.19
2019-02-11T20:17:48.888Z,6.24
2019-02-11T20:20:19.918Z,6.10
2019-02-11T20:22:48.799Z,5.69
2019-02-11T20:25:17.525Z,5.48
2019-02-11T20:27:46.359Z,5.37
2019-02-11T20:30:24.414Z,5.27
2019-02-11T20:32:53.162Z,5.34
2019-02-11T20:35:21.885Z,5.42
2019-02-11T20:37:50.679Z,5.40
2019-02-11T20:40:27.625Z,5.19
2019-02-11T20:42:56.509Z,5.30
2019-02-11T20:45:29.657Z,5.35
2019-02-11T20:47:58.395Z,5.43
2019-02-11T20:50:27.496Z,5.31
2019-02-11T20:52:56.253Z,5.24
2019-02-11T20:55:24.965Z,5.29
2019-02-11T20:57:56.248Z,5.29
2019-02-11T21:00:26.291Z,5.28
2019-02-11T21:02:55.019Z,5.47
2019-02-11T21:05:24.425Z,5.51
2019-02-11T21:07:53.158Z,5.50
2019-02-11T21:10:24.345Z,5.56
2019-02-11T21:12:53.112Z,5.45
2019-02-11T21:15:21.857Z,5.61
2019-02-11T21:17:50.578Z,5.48
2019-02-11T21:20:37.782Z,5.49
2019-02-11T21:23:08.238Z,5.64
2019-02-11T21:25:37.155Z,5.57
2019-02-11T21:28:06.140Z,5.39
2019-02-11T21:30:34.884Z,5.64
2019-02-11T21:33:06.447Z,5.46
2019-02-11T21:35:35.252Z,5.54
2019-02-11T21:38:03.995Z,5.41
2019-02-11T21:40:32.725Z,5.34
2019-02-11T21:43:02.241Z,5.32
2019-02-11T21:45:32.431Z,5.34
2019-02-11T21:48:04.321Z,5.41
2019-02-11T21:50:33.098Z,5.48
2019-02-11T21:53:01.872Z,5.45
2019-02-11T21:55:30.601Z,5.41
2019-02-11T21:57:59.501Z,5.41
2019-02-11T22:00:28.226Z,5.48
2019-02-11T22:03:01.209Z,5.56
2019-02-11T22:05:29.994Z,5.73
2019-02-11T22:07:58.720Z,5.73
2019-02-11T22:10:27.447Z,5.42
2019-02-11T22:12:57.437Z,5.36
2019-02-11T22:15:26.124Z,5.20
2019-02-11T22:17:54.854Z,5.01
2019-02-11T22:20:24.072Z,4.88
2019-02-11T22:22:52.805Z,4.77
2019-02-11T22:25:21.683Z,4.72
2019-02-11T22:27:50.556Z,4.82
2019-02-11T22:30:24.217Z,4.63
2019-02-11T22:32:52.947Z,4.53
2019-02-11T22:35:22.149Z,4.46
2019-02-11T22:37:52.058Z,4.18
2019-02-11T22:40:20.790Z,3.98
2019-02-11T22:42:49.558Z,3.89
2019-02-11T22:45:21.155Z,3.76
2019-02-11T22:47:49.878Z,3.85
2019-02-11T22:50:18.767Z,4.04
2019-02-11T22:52:47.489Z,4.28
2019-02-11T22:55:16.716Z,4.71
2019-02-11T22:57:45.962Z,4.49
2019-02-11T23:00:49.215Z,4.28
2019-02-11T23:03:18.286Z,4.35
2019-02-11T23:05:47.007Z,4.27
2019-02-11T23:08:15.745Z,4.26
2019-02-11T23:10:44.740Z,4.34
2019-02-11T23:13:13.563Z,4.31
2019-02-11T23:15:42.290Z,4.50
2019-02-11T23:18:11.070Z,4.53
2019-02-11T23:20:39.796Z,4.78
2019-02-11T23:23:08.523Z,4.90
2019-02-11T23:25:37.288Z,4.81
2019-02-11T23:28:06.049Z,5.05
2019-02-11T23:30:34.771Z,5.03
2019-02-11T23:33:03.579Z,4.99
2019-02-11T23:35:32.310Z,4.85
2019-02-11T23:38:01.037Z,4.85
2019-02-11T23:40:30.268Z,5.03
2019-02-11T23:42:59.946Z,5.01
2019-02-11T23:45:28.808Z,5.12
2019-02-11T23:47:57.686Z,5.11
2019-02-11T23:50:26.418Z,5.14
2019-02-11T23:52:55.136Z,5.20
2019-02-11T23:55:24.009Z,5.31
2019-02-11T23:57:52.740Z,5.24
